sensor_id;sensor_type;location;lat;lon;timestamp;P1;durP1;ratioP1;P2;durP2;ratioP2
1000;SDS011;489;47.806;12.858;2022-12-20T00:00:20;18.47;;;14.07;;
1000;SDS011;489;47.806;12.858;2022-12-20T00:02:23;16.83;;;12.70;;
1000;SDS011;489;47.806;12.858;2022-12-20T00:04:25;17.73;;;13.73;;
1000;SDS011;489;47.806;12.858;2022-12-20T00:06:26;15.60;;;12.90;;
1000;SDS011;489;47.806;12.858;2022-12-20T00:08:28;14.90;;;12.67;;
1000;SDS011;489;47.806;12.858;2022-12-20T00:10:30;16.03;;;11.93;;
1000;SDS011;489;47.806;12.858;2022-12-20T00:12:35;14.57;;;11.30;;
1000;SDS011;489;47.806;12.858;2022-12-20T00:14:37;17.47;;;12.80;;
1000;SDS011;489;47.806;12.858;2022-12-20T00:16:39;15.67;;;11.87;;
1000;SDS011;489;47.806;12.858;2022-12-20T00:18:42;14.17;;;11.20;;
1000;SDS011;489;47.806;12.858;2022-12-20T00:20:44;13.63;;;11.40;;
1000;SDS011;489;47.806;12.858;2022-12-20T00:22:45;15.50;;;11.60;;
1000;SDS011;489;47.806;12.858;2022-12-20T00:24:47;15.60;;;11.17;;
1000;SDS011;489;47.806;12.858;2022-12-20T00:26:49;35.00;;;18.77;;
1000;SDS011;489;47.806;12.858;2022-12-20T00:28:50;40.37;;;23.97;;
1000;SDS011;489;47.806;12.858;2022-12-20T00:30:52;45.83;;;23.97;;
1000;SDS011;489;47.806;12.858;2022-12-20T00:32:54;41.50;;;21.70;;
1000;SDS011;489;47.806;12.858;2022-12-20T00:34:57;47.53;;;25.57;;
1000;SDS011;489;47.806;12.858;2022-12-20T00:36:59;52.40;;;27.37;;
1000;SDS011;489;47.806;12.858;2022-12-20T00:39:01;129.30;;;48.93;;
1000;SDS011;489;47.806;12.858;2022-12-20T00:41:04;66.57;;;27.57;;
1000;SDS011;489;47.806;12.858;2022-12-20T00:43:07;40.90;;;19.80;;
1000;SDS011;489;47.806;12.858;2022-12-20T00:45:09;27.20;;;14.63;;
1000;SDS011;489;47.806;12.858;2022-12-20T00:47:11;22.80;;;12.50;;
1000;SDS011;489;47.806;12.858;2022-12-20T00:49:12;15.13;;;11.10;;
1000;SDS011;489;47.806;12.858;2022-12-20T00:51:17;11.20;;;9.10;;
1000;SDS011;489;47.806;12.858;2022-12-20T00:53:20;11.87;;;9.70;;
1000;SDS011;489;47.806;12.858;2022-12-20T00:55:21;12.87;;;9.60;;
1000;SDS011;489;47.806;12.858;2022-12-20T00:57:23;11.40;;;8.40;;
1000;SDS011;489;47.806;12.858;2022-12-20T00:59:25;12.87;;;9.40;;
1000;SDS011;489;47.806;12.858;2022-12-20T01:01:27;11.80;;;9.30;;
1000;SDS011;489;47.806;12.858;2022-12-20T01:03:30;14.30;;;10.90;;
1000;SDS011;489;47.806;12.858;2022-12-20T01:05:32;13.07;;;10.40;;
1000;SDS011;489;47.806;12.858;2022-12-20T01:07:35;13.50;;;10.73;;
1000;SDS011;489;47.806;12.858;2022-12-20T01:09:36;16.77;;;11.17;;
1000;SDS011;489;47.806;12.858;2022-12-20T01:11:38;14.90;;;9.80;;
1000;SDS011;489;47.806;12.858;2022-12-20T01:13:41;13.37;;;10.47;;
1000;SDS011;489;47.806;12.858;2022-12-20T01:15:43;14.63;;;9.90;;
1000;SDS011;489;47.806;12.858;2022-12-20T01:17:45;15.50;;;10.10;;
1000;SDS011;489;47.806;12.858;2022-12-20T01:19:47;13.33;;;9.43;;
1000;SDS011;489;47.806;12.858;2022-12-20T01:21:49;12.63;;;9.93;;
1000;SDS011;489;47.806;12.858;2022-12-20T01:23:52;12.67;;;9.00;;
1000;SDS011;489;47.806;12.858;2022-12-20T01:25:56;13.83;;;10.30;;
1000;SDS011;489;47.806;12.858;2022-12-20T01:27:58;11.70;;;9.10;;
1000;SDS011;489;47.806;12.858;2022-12-20T01:30:00;12.50;;;9.00;;
1000;SDS011;489;47.806;12.858;2022-12-20T01:32:02;11.67;;;9.40;;
1000;SDS011;489;47.806;12.858;2022-12-20T01:34:04;13.90;;;9.53;;
1000;SDS011;489;47.806;12.858;2022-12-20T01:36:07;13.57;;;9.60;;
1000;SDS011;489;47.806;12.858;2022-12-20T01:38:10;11.00;;;9.47;;
1000;SDS011;489;47.806;12.858;2022-12-20T01:40:13;11.17;;;8.80;;
1000;SDS011;489;47.806;12.858;2022-12-20T01:42:16;11.67;;;8.90;;
1000;SDS011;489;47.806;12.858;2022-12-20T01:46:54;15.77;;;9.73;;
1000;SDS011;489;47.806;12.858;2022-12-20T01:48:57;13.23;;;8.90;;
1000;SDS011;489;47.806;12.858;2022-12-20T01:51:00;12.27;;;9.20;;
1000;SDS011;489;47.806;12.858;2022-12-20T01:53:02;13.40;;;9.43;;
1000;SDS011;489;47.806;12.858;2022-12-20T01:55:06;11.97;;;8.57;;
1000;SDS011;489;47.806;12.858;2022-12-20T01:57:11;10.37;;;8.83;;
1000;SDS011;489;47.806;12.858;2022-12-20T01:59:16;10.53;;;8.53;;
1000;SDS011;489;47.806;12.858;2022-12-20T02:01:18;12.83;;;9.63;;
1000;SDS011;489;47.806;12.858;2022-12-20T02:03:19;12.43;;;9.80;;
1000;SDS011;489;47.806;12.858;2022-12-20T02:05:21;10.77;;;9.10;;
1000;SDS011;489;47.806;12.858;2022-12-20T02:07:24;12.93;;;9.60;;
1000;SDS011;489;47.806;12.858;2022-12-20T02:09:28;10.87;;;9.17;;
1000;SDS011;489;47.806;12.858;2022-12-20T02:13:53;11.50;;;9.60;;
1000;SDS011;489;47.806;12.858;2022-12-20T02:16:01;10.17;;;8.70;;
1000;SDS011;489;47.806;12.858;2022-12-20T02:18:12;10.23;;;8.00;;
1000;SDS011;489;47.806;12.858;2022-12-20T02:20:31;11.47;;;7.97;;
1000;SDS011;489;47.806;12.858;2022-12-20T02:23:00;12.87;;;8.70;;
1000;SDS011;489;47.806;12.858;2022-12-20T02:25:18;12.90;;;9.50;;
1000;SDS011;489;47.806;12.858;2022-12-20T02:27:42;11.67;;;8.00;;
1000;SDS011;489;47.806;12.858;2022-12-20T02:29:57;12.50;;;8.37;;
1000;SDS011;489;47.806;12.858;2022-12-20T02:32:18;12.77;;;8.80;;
1000;SDS011;489;47.806;12.858;2022-12-20T02:34:22;11.77;;;8.70;;
1000;SDS011;489;47.806;12.858;2022-12-20T02:36:25;13.10;;;8.87;;
1000;SDS011;489;47.806;12.858;2022-12-20T02:38:27;9.30;;;7.97;;
1000;SDS011;489;47.806;12.858;2022-12-20T02:40:31;11.27;;;8.30;;
1000;SDS011;489;47.806;12.858;2022-12-20T02:42:36;9.23;;;7.90;;
1000;SDS011;489;47.806;12.858;2022-12-20T02:44:45;10.50;;;8.30;;
1000;SDS011;489;47.806;12.858;2022-12-20T02:47:09;10.53;;;8.67;;
1000;SDS011;489;47.806;12.858;2022-12-20T02:49:15;11.70;;;8.70;;
1000;SDS011;489;47.806;12.858;2022-12-20T02:51:18;12.07;;;8.93;;
1000;SDS011;489;47.806;12.858;2022-12-20T02:53:21;10.17;;;8.17;;
1000;SDS011;489;47.806;12.858;2022-12-20T02:55:24;10.37;;;8.00;;
1000;SDS011;489;47.806;12.858;2022-12-20T02:57:32;12.10;;;8.80;;
1000;SDS011;489;47.806;12.858;2022-12-20T02:59:40;10.13;;;8.13;;
1000;SDS011;489;47.806;12.858;2022-12-20T03:01:44;10.30;;;8.67;;
1000;SDS011;489;47.806;12.858;2022-12-20T03:03:50;9.20;;;7.07;;
1000;SDS011;489;47.806;12.858;2022-12-20T03:05:52;8.83;;;7.80;;
1000;SDS011;489;47.806;12.858;2022-12-20T03:07:55;8.50;;;7.60;;
1000;SDS011;489;47.806;12.858;2022-12-20T03:09:57;11.17;;;8.53;;
1000;SDS011;489;47.806;12.858;2022-12-20T03:11:59;11.00;;;8.37;;
1000;SDS011;489;47.806;12.858;2022-12-20T03:14:00;9.70;;;8.23;;
1000;SDS011;489;47.806;12.858;2022-12-20T03:16:02;10.87;;;8.33;;
1000;SDS011;489;47.806;12.858;2022-12-20T03:18:04;9.17;;;7.40;;
1000;SDS011;489;47.806;12.858;2022-12-20T03:20:08;8.60;;;6.70;;
1000;SDS011;489;47.806;12.858;2022-12-20T03:22:11;7.50;;;6.70;;
1000;SDS011;489;47.806;12.858;2022-12-20T03:24:13;9.10;;;6.87;;
1000;SDS011;489;47.806;12.858;2022-12-20T03:26:15;9.40;;;7.10;;
1000;SDS011;489;47.806;12.858;2022-12-20T03:28:16;7.53;;;6.30;;
1000;SDS011;489;47.806;12.858;2022-12-20T03:30:18;7.97;;;6.63;;
1000;SDS011;489;47.806;12.858;2022-12-20T03:32:20;9.83;;;6.67;;
1000;SDS011;489;47.806;12.858;2022-12-20T03:34:22;9.30;;;7.97;;
1000;SDS011;489;47.806;12.858;2022-12-20T03:36:25;10.63;;;8.70;;
1000;SDS011;489;47.806;12.858;2022-12-20T03:38:27;9.87;;;7.70;;
1000;SDS011;489;47.806;12.858;2022-12-20T03:40:28;11.80;;;8.07;;
1000;SDS011;489;47.806;12.858;2022-12-20T03:42:30;11.20;;;8.10;;
1000;SDS011;489;47.806;12.858;2022-12-20T03:44:32;9.73;;;7.90;;
1000;SDS011;489;47.806;12.858;2022-12-20T03:46:34;8.90;;;7.60;;
1000;SDS011;489;47.806;12.858;2022-12-20T03:48:35;11.60;;;8.27;;
1000;SDS011;489;47.806;12.858;2022-12-20T03:50:37;10.30;;;7.40;;
1000;SDS011;489;47.806;12.858;2022-12-20T03:52:40;11.97;;;8.00;;
1000;SDS011;489;47.806;12.858;2022-12-20T03:54:42;10.70;;;8.20;;
1000;SDS011;489;47.806;12.858;2022-12-20T03:56:44;10.00;;;8.10;;
1000;SDS011;489;47.806;12.858;2022-12-20T03:58:45;10.10;;;7.63;;
1000;SDS011;489;47.806;12.858;2022-12-20T04:00:47;8.73;;;7.83;;
1000;SDS011;489;47.806;12.858;2022-12-20T04:02:49;8.20;;;6.40;;
1000;SDS011;489;47.806;12.858;2022-12-20T04:04:51;13.60;;;8.20;;
1000;SDS011;489;47.806;12.858;2022-12-20T04:06:53;10.57;;;7.80;;
1000;SDS011;489;47.806;12.858;2022-12-20T04:08:56;9.00;;;7.00;;
1000;SDS011;489;47.806;12.858;2022-12-20T04:10:58;11.10;;;7.27;;
1000;SDS011;489;47.806;12.858;2022-12-20T04:13:18;11.20;;;8.37;;
1000;SDS011;489;47.806;12.858;2022-12-20T04:15:19;10.50;;;7.50;;
1000;SDS011;489;47.806;12.858;2022-12-20T04:17:21;9.63;;;7.57;;
1000;SDS011;489;47.806;12.858;2022-12-20T04:19:23;9.73;;;7.30;;
1000;SDS011;489;47.806;12.858;2022-12-20T04:21:25;9.87;;;8.10;;
1000;SDS011;489;47.806;12.858;2022-12-20T04:23:28;10.33;;;7.07;;
1000;SDS011;489;47.806;12.858;2022-12-20T04:25:31;11.87;;;8.20;;
1000;SDS011;489;47.806;12.858;2022-12-20T04:27:33;9.90;;;7.77;;
1000;SDS011;489;47.806;12.858;2022-12-20T04:29:35;8.90;;;6.70;;
1000;SDS011;489;47.806;12.858;2022-12-20T04:31:36;9.23;;;6.97;;
1000;SDS011;489;47.806;12.858;2022-12-20T04:33:38;8.77;;;6.87;;
1000;SDS011;489;47.806;12.858;2022-12-20T04:35:40;7.80;;;7.03;;
1000;SDS011;489;47.806;12.858;2022-12-20T04:37:42;8.00;;;6.77;;
1000;SDS011;489;47.806;12.858;2022-12-20T04:39:44;8.20;;;6.80;;
1000;SDS011;489;47.806;12.858;2022-12-20T04:41:47;6.70;;;5.57;;
1000;SDS011;489;47.806;12.858;2022-12-20T04:43:49;5.43;;;4.00;;
1000;SDS011;489;47.806;12.858;2022-12-20T04:45:51;5.33;;;4.60;;
1000;SDS011;489;47.806;12.858;2022-12-20T04:47:55;7.07;;;5.77;;
1000;SDS011;489;47.806;12.858;2022-12-20T04:49:57;6.30;;;5.20;;
1000;SDS011;489;47.806;12.858;2022-12-20T04:51:58;5.97;;;4.70;;
1000;SDS011;489;47.806;12.858;2022-12-20T04:54:20;7.53;;;5.67;;
1000;SDS011;489;47.806;12.858;2022-12-20T04:56:22;9.10;;;5.60;;
1000;SDS011;489;47.806;12.858;2022-12-20T04:58:26;6.83;;;5.60;;
1000;SDS011;489;47.806;12.858;2022-12-20T05:00:28;6.23;;;5.60;;
1000;SDS011;489;47.806;12.858;2022-12-20T05:02:30;7.23;;;6.40;;
1000;SDS011;489;47.806;12.858;2022-12-20T05:04:32;8.73;;;5.83;;
1000;SDS011;489;47.806;12.858;2022-12-20T05:06:33;7.40;;;6.30;;
1000;SDS011;489;47.806;12.858;2022-12-20T05:08:35;6.57;;;5.10;;
1000;SDS011;489;47.806;12.858;2022-12-20T05:10:37;7.90;;;5.47;;
1000;SDS011;489;47.806;12.858;2022-12-20T05:12:39;9.10;;;5.80;;
1000;SDS011;489;47.806;12.858;2022-12-20T05:14:42;7.07;;;5.90;;
1000;SDS011;489;47.806;12.858;2022-12-20T05:16:44;7.60;;;5.57;;
1000;SDS011;489;47.806;12.858;2022-12-20T05:18:45;8.00;;;6.43;;
1000;SDS011;489;47.806;12.858;2022-12-20T05:20:47;7.20;;;5.97;;
1000;SDS011;489;47.806;12.858;2022-12-20T05:23:09;7.37;;;6.07;;
1000;SDS011;489;47.806;12.858;2022-12-20T05:25:29;6.53;;;5.87;;
1000;SDS011;489;47.806;12.858;2022-12-20T05:27:47;8.80;;;6.10;;
1000;SDS011;489;47.806;12.858;2022-12-20T05:29:51;7.27;;;6.40;;
1000;SDS011;489;47.806;12.858;2022-12-20T05:31:52;6.97;;;5.80;;
1000;SDS011;489;47.806;12.858;2022-12-20T05:33:54;9.03;;;5.60;;
1000;SDS011;489;47.806;12.858;2022-12-20T05:35:56;6.60;;;5.67;;
1000;SDS011;489;47.806;12.858;2022-12-20T05:37:57;6.93;;;5.43;;
1000;SDS011;489;47.806;12.858;2022-12-20T05:40:00;7.57;;;6.53;;
1000;SDS011;489;47.806;12.858;2022-12-20T05:42:03;8.83;;;5.93;;
1000;SDS011;489;47.806;12.858;2022-12-20T05:44:05;7.70;;;6.00;;
1000;SDS011;489;47.806;12.858;2022-12-20T05:46:08;7.73;;;6.10;;
1000;SDS011;489;47.806;12.858;2022-12-20T05:48:10;8.03;;;5.53;;
1000;SDS011;489;47.806;12.858;2022-12-20T05:50:12;8.20;;;5.70;;
1000;SDS011;489;47.806;12.858;2022-12-20T05:52:16;6.30;;;5.70;;
1000;SDS011;489;47.806;12.858;2022-12-20T05:54:18;7.37;;;6.30;;
1000;SDS011;489;47.806;12.858;2022-12-20T05:56:19;10.90;;;8.03;;
1000;SDS011;489;47.806;12.858;2022-12-20T05:58:21;10.93;;;7.63;;
1000;SDS011;489;47.806;12.858;2022-12-20T06:00:23;9.90;;;6.83;;
1000;SDS011;489;47.806;12.858;2022-12-20T06:02:26;10.20;;;7.40;;
1000;SDS011;489;47.806;12.858;2022-12-20T06:04:28;8.77;;;6.70;;
1000;SDS011;489;47.806;12.858;2022-12-20T06:06:31;7.57;;;5.90;;
1000;SDS011;489;47.806;12.858;2022-12-20T06:08:33;8.73;;;6.13;;
1000;SDS011;489;47.806;12.858;2022-12-20T06:10:35;8.47;;;6.43;;
1000;SDS011;489;47.806;12.858;2022-12-20T06:12:37;12.50;;;7.43;;
1000;SDS011;489;47.806;12.858;2022-12-20T06:14:38;12.97;;;7.60;;
1000;SDS011;489;47.806;12.858;2022-12-20T06:16:40;12.67;;;8.53;;
1000;SDS011;489;47.806;12.858;2022-12-20T06:18:43;13.10;;;7.90;;
1000;SDS011;489;47.806;12.858;2022-12-20T06:20:48;10.07;;;6.83;;
1000;SDS011;489;47.806;12.858;2022-12-20T06:22:50;13.63;;;9.00;;
1000;SDS011;489;47.806;12.858;2022-12-20T06:24:52;12.27;;;9.10;;
1000;SDS011;489;47.806;12.858;2022-12-20T06:26:54;8.63;;;7.00;;
1000;SDS011;489;47.806;12.858;2022-12-20T06:28:56;11.33;;;8.43;;
1000;SDS011;489;47.806;12.858;2022-12-20T06:31:01;12.47;;;9.80;;
1000;SDS011;489;47.806;12.858;2022-12-20T06:33:03;10.37;;;9.03;;
1000;SDS011;489;47.806;12.858;2022-12-20T06:35:06;11.00;;;9.00;;
1000;SDS011;489;47.806;12.858;2022-12-20T06:37:08;11.17;;;8.90;;
1000;SDS011;489;47.806;12.858;2022-12-20T06:39:10;9.87;;;8.87;;
1000;SDS011;489;47.806;12.858;2022-12-20T06:41:12;10.27;;;8.67;;
1000;SDS011;489;47.806;12.858;2022-12-20T06:43:13;10.97;;;8.17;;
1000;SDS011;489;47.806;12.858;2022-12-20T06:45:16;9.80;;;7.70;;
1000;SDS011;489;47.806;12.858;2022-12-20T06:47:18;12.60;;;8.70;;
1000;SDS011;489;47.806;12.858;2022-12-20T06:49:19;12.60;;;8.87;;
1000;SDS011;489;47.806;12.858;2022-12-20T06:51:22;12.37;;;8.10;;
1000;SDS011;489;47.806;12.858;2022-12-20T06:53:24;9.83;;;6.87;;
1000;SDS011;489;47.806;12.858;2022-12-20T06:55:26;8.83;;;7.17;;
1000;SDS011;489;47.806;12.858;2022-12-20T06:57:28;7.97;;;6.23;;
1000;SDS011;489;47.806;12.858;2022-12-20T06:59:29;8.40;;;6.90;;
1000;SDS011;489;47.806;12.858;2022-12-20T07:01:31;7.70;;;6.80;;
1000;SDS011;489;47.806;12.858;2022-12-20T07:03:33;7.33;;;5.60;;
1000;SDS011;489;47.806;12.858;2022-12-20T07:05:34;9.03;;;6.50;;
1000;SDS011;489;47.806;12.858;2022-12-20T07:07:37;11.43;;;7.20;;
1000;SDS011;489;47.806;12.858;2022-12-20T07:09:40;14.63;;;9.50;;
1000;SDS011;489;47.806;12.858;2022-12-20T07:11:41;11.27;;;8.70;;
1000;SDS011;489;47.806;12.858;2022-12-20T07:13:43;14.33;;;8.97;;
1000;SDS011;489;47.806;12.858;2022-12-20T07:15:45;9.53;;;8.23;;
1000;SDS011;489;47.806;12.858;2022-12-20T07:17:47;12.00;;;7.67;;
1000;SDS011;489;47.806;12.858;2022-12-20T07:19:49;8.43;;;6.73;;
1000;SDS011;489;47.806;12.858;2022-12-20T07:21:50;9.70;;;7.13;;
1000;SDS011;489;47.806;12.858;2022-12-20T07:23:54;8.83;;;7.20;;
1000;SDS011;489;47.806;12.858;2022-12-20T07:25:58;10.97;;;8.10;;
1000;SDS011;489;47.806;12.858;2022-12-20T07:28:01;12.60;;;8.37;;
1000;SDS011;489;47.806;12.858;2022-12-20T07:30:03;13.47;;;10.47;;
1000;SDS011;489;47.806;12.858;2022-12-20T07:32:05;10.50;;;9.20;;
1000;SDS011;489;47.806;12.858;2022-12-20T07:34:07;13.93;;;10.17;;
1000;SDS011;489;47.806;12.858;2022-12-20T07:36:09;12.20;;;9.97;;
1000;SDS011;489;47.806;12.858;2022-12-20T07:38:12;14.97;;;12.17;;
1000;SDS011;489;47.806;12.858;2022-12-20T07:40:15;10.87;;;9.67;;
1000;SDS011;489;47.806;12.858;2022-12-20T07:42:17;13.97;;;9.40;;
1000;SDS011;489;47.806;12.858;2022-12-20T07:44:19;14.30;;;10.63;;
1000;SDS011;489;47.806;12.858;2022-12-20T07:46:20;12.43;;;9.77;;
1000;SDS011;489;47.806;12.858;2022-12-20T07:48:22;11.43;;;8.80;;
1000;SDS011;489;47.806;12.858;2022-12-20T07:50:24;10.37;;;9.17;;
1000;SDS011;489;47.806;12.858;2022-12-20T07:52:26;10.80;;;9.30;;
1000;SDS011;489;47.806;12.858;2022-12-20T07:54:29;12.50;;;9.50;;
1000;SDS011;489;47.806;12.858;2022-12-20T07:56:35;12.23;;;9.23;;
1000;SDS011;489;47.806;12.858;2022-12-20T07:58:38;10.20;;;8.07;;
1000;SDS011;489;47.806;12.858;2022-12-20T08:00:41;11.67;;;9.30;;
1000;SDS011;489;47.806;12.858;2022-12-20T08:02:43;12.70;;;11.40;;
1000;SDS011;489;47.806;12.858;2022-12-20T08:04:49;12.40;;;11.07;;
1000;SDS011;489;47.806;12.858;2022-12-20T08:06:51;12.40;;;9.83;;
1000;SDS011;489;47.806;12.858;2022-12-20T08:08:56;11.23;;;8.83;;
1000;SDS011;489;47.806;12.858;2022-12-20T08:10:59;11.50;;;8.90;;
1000;SDS011;489;47.806;12.858;2022-12-20T08:13:03;10.30;;;9.13;;
1000;SDS011;489;47.806;12.858;2022-12-20T08:15:07;10.53;;;9.37;;
1000;SDS011;489;47.806;12.858;2022-12-20T08:17:09;14.10;;;11.00;;
1000;SDS011;489;47.806;12.858;2022-12-20T08:19:11;14.40;;;10.90;;
1000;SDS011;489;47.806;12.858;2022-12-20T08:21:13;10.77;;;8.80;;
1000;SDS011;489;47.806;12.858;2022-12-20T08:23:15;11.07;;;9.40;;
1000;SDS011;489;47.806;12.858;2022-12-20T08:25:16;14.97;;;9.00;;
1000;SDS011;489;47.806;12.858;2022-12-20T08:27:18;12.13;;;9.70;;
1000;SDS011;489;47.806;12.858;2022-12-20T08:29:21;11.30;;;9.43;;
1000;SDS011;489;47.806;12.858;2022-12-20T08:31:23;10.40;;;8.90;;
1000;SDS011;489;47.806;12.858;2022-12-20T08:33:25;12.13;;;8.73;;
1000;SDS011;489;47.806;12.858;2022-12-20T08:35:26;10.93;;;8.83;;
1000;SDS011;489;47.806;12.858;2022-12-20T08:37:28;11.70;;;9.57;;
1000;SDS011;489;47.806;12.858;2022-12-20T08:39:30;11.43;;;8.57;;
1000;SDS011;489;47.806;12.858;2022-12-20T08:41:32;10.30;;;8.40;;
1000;SDS011;489;47.806;12.858;2022-12-20T08:43:36;19.00;;;11.53;;
1000;SDS011;489;47.806;12.858;2022-12-20T08:45:39;14.47;;;9.80;;
1000;SDS011;489;47.806;12.858;2022-12-20T08:47:41;9.00;;;8.10;;
1000;SDS011;489;47.806;12.858;2022-12-20T08:49:42;10.50;;;7.93;;
1000;SDS011;489;47.806;12.858;2022-12-20T08:51:44;9.93;;;8.33;;
1000;SDS011;489;47.806;12.858;2022-12-20T08:53:46;9.87;;;8.03;;
1000;SDS011;489;47.806;12.858;2022-12-20T08:55:47;11.83;;;9.23;;
1000;SDS011;489;47.806;12.858;2022-12-20T08:57:49;14.00;;;10.00;;
1000;SDS011;489;47.806;12.858;2022-12-20T08:59:51;12.30;;;10.03;;
1000;SDS011;489;47.806;12.858;2022-12-20T09:01:54;10.60;;;8.73;;
1000;SDS011;489;47.806;12.858;2022-12-20T09:03:56;9.67;;;8.00;;
1000;SDS011;489;47.806;12.858;2022-12-20T09:05:57;9.60;;;7.90;;
1000;SDS011;489;47.806;12.858;2022-12-20T09:08:01;8.90;;;8.00;;
1000;SDS011;489;47.806;12.858;2022-12-20T09:10:03;11.27;;;8.40;;
1000;SDS011;489;47.806;12.858;2022-12-20T09:12:05;12.57;;;9.93;;
1000;SDS011;489;47.806;12.858;2022-12-20T09:14:07;11.57;;;10.37;;
1000;SDS011;489;47.806;12.858;2022-12-20T09:16:09;12.20;;;9.30;;
1000;SDS011;489;47.806;12.858;2022-12-20T09:18:13;11.63;;;7.70;;
1000;SDS011;489;47.806;12.858;2022-12-20T09:20:15;9.90;;;8.13;;
1000;SDS011;489;47.806;12.858;2022-12-20T09:22:16;9.13;;;7.53;;
1000;SDS011;489;47.806;12.858;2022-12-20T09:24:18;10.47;;;7.37;;
1000;SDS011;489;47.806;12.858;2022-12-20T09:26:20;8.37;;;7.50;;
1000;SDS011;489;47.806;12.858;2022-12-20T09:28:22;9.97;;;8.63;;
1000;SDS011;489;47.806;12.858;2022-12-20T09:30:24;8.53;;;7.50;;
1000;SDS011;489;47.806;12.858;2022-12-20T09:32:26;9.17;;;7.50;;
1000;SDS011;489;47.806;12.858;2022-12-20T09:34:29;8.50;;;7.60;;
1000;SDS011;489;47.806;12.858;2022-12-20T09:36:31;9.10;;;7.00;;
1000;SDS011;489;47.806;12.858;2022-12-20T09:38:32;10.47;;;9.20;;
1000;SDS011;489;47.806;12.858;2022-12-20T09:40:34;9.03;;;8.07;;
1000;SDS011;489;47.806;12.858;2022-12-20T09:42:37;9.37;;;8.10;;
1000;SDS011;489;47.806;12.858;2022-12-20T09:44:39;10.30;;;7.97;;
1000;SDS011;489;47.806;12.858;2022-12-20T09:46:41;9.03;;;8.13;;
1000;SDS011;489;47.806;12.858;2022-12-20T09:48:45;10.40;;;7.53;;
1000;SDS011;489;47.806;12.858;2022-12-20T09:50:50;8.13;;;6.83;;
1000;SDS011;489;47.806;12.858;2022-12-20T09:53:01;9.40;;;7.10;;
1000;SDS011;489;47.806;12.858;2022-12-20T09:55:14;8.73;;;7.70;;
1000;SDS011;489;47.806;12.858;2022-12-20T09:57:23;9.27;;;8.30;;
1000;SDS011;489;47.806;12.858;2022-12-20T09:59:29;12.20;;;10.90;;
1000;SDS011;489;47.806;12.858;2022-12-20T10:01:34;10.40;;;9.10;;
1000;SDS011;489;47.806;12.858;2022-12-20T10:03:36;10.40;;;9.17;;
1000;SDS011;489;47.806;12.858;2022-12-20T10:05:38;10.87;;;8.73;;
1000;SDS011;489;47.806;12.858;2022-12-20T10:07:47;10.90;;;9.80;;
1000;SDS011;489;47.806;12.858;2022-12-20T10:09:59;11.70;;;10.43;;
1000;SDS011;489;47.806;12.858;2022-12-20T10:12:10;13.87;;;11.73;;
1000;SDS011;489;47.806;12.858;2022-12-20T10:14:22;12.20;;;10.90;;
1000;SDS011;489;47.806;12.858;2022-12-20T10:16:35;11.87;;;10.63;;
1000;SDS011;489;47.806;12.858;2022-12-20T10:18:45;11.20;;;10.10;;
1000;SDS011;489;47.806;12.858;2022-12-20T10:20:55;9.63;;;8.60;;
1000;SDS011;489;47.806;12.858;2022-12-20T10:23:02;9.87;;;8.87;;
1000;SDS011;489;47.806;12.858;2022-12-20T10:25:12;9.13;;;8.20;;
1000;SDS011;489;47.806;12.858;2022-12-20T10:27:17;10.03;;;9.03;;
1000;SDS011;489;47.806;12.858;2022-12-20T10:29:19;9.63;;;8.70;;
1000;SDS011;489;47.806;12.858;2022-12-20T10:31:21;12.37;;;9.73;;
1000;SDS011;489;47.806;12.858;2022-12-20T10:33:23;10.30;;;8.17;;
1000;SDS011;489;47.806;12.858;2022-12-20T10:35:26;9.13;;;8.13;;
1000;SDS011;489;47.806;12.858;2022-12-20T10:37:30;9.00;;;8.20;;
1000;SDS011;489;47.806;12.858;2022-12-20T10:39:40;10.50;;;9.50;;
1000;SDS011;489;47.806;12.858;2022-12-20T10:41:46;10.93;;;9.47;;
1000;SDS011;489;47.806;12.858;2022-12-20T10:43:52;8.93;;;8.03;;
1000;SDS011;489;47.806;12.858;2022-12-20T10:45:56;8.73;;;7.83;;
1000;SDS011;489;47.806;12.858;2022-12-20T10:48:00;11.53;;;8.80;;
1000;SDS011;489;47.806;12.858;2022-12-20T10:50:08;12.63;;;9.83;;
1000;SDS011;489;47.806;12.858;2022-12-20T10:52:14;10.67;;;9.67;;
1000;SDS011;489;47.806;12.858;2022-12-20T10:54:19;11.73;;;10.13;;
1000;SDS011;489;47.806;12.858;2022-12-20T10:56:26;10.57;;;9.57;;
1000;SDS011;489;47.806;12.858;2022-12-20T10:58:30;12.10;;;10.90;;
1000;SDS011;489;47.806;12.858;2022-12-20T11:00:34;13.07;;;11.30;;
1000;SDS011;489;47.806;12.858;2022-12-20T11:02:36;12.50;;;11.20;;
1000;SDS011;489;47.806;12.858;2022-12-20T11:04:38;13.30;;;11.70;;
1000;SDS011;489;47.806;12.858;2022-12-20T11:06:41;11.43;;;10.33;;
1000;SDS011;489;47.806;12.858;2022-12-20T11:08:44;10.33;;;9.13;;
1000;SDS011;489;47.806;12.858;2022-12-20T11:10:47;9.50;;;8.50;;
1000;SDS011;489;47.806;12.858;2022-12-20T11:12:52;9.17;;;8.13;;
1000;SDS011;489;47.806;12.858;2022-12-20T11:15:06;8.77;;;7.87;;
1000;SDS011;489;47.806;12.858;2022-12-20T11:17:18;10.70;;;9.60;;
1000;SDS011;489;47.806;12.858;2022-12-20T11:21:51;11.63;;;10.40;;
1000;SDS011;489;47.806;12.858;2022-12-20T11:24:01;11.20;;;8.97;;
1000;SDS011;489;47.806;12.858;2022-12-20T11:26:13;12.03;;;10.73;;
1000;SDS011;489;47.806;12.858;2022-12-20T11:28:32;11.87;;;10.37;;
1000;SDS011;489;47.806;12.858;2022-12-20T11:30:40;10.77;;;9.67;;
1000;SDS011;489;47.806;12.858;2022-12-20T11:33:01;21.43;;;16.37;;
1000;SDS011;489;47.806;12.858;2022-12-20T11:35:12;18.60;;;15.60;;
1000;SDS011;489;47.806;12.858;2022-12-20T11:37:19;13.63;;;12.23;;
1000;SDS011;489;47.806;12.858;2022-12-20T11:39:24;15.13;;;12.40;;
1000;SDS011;489;47.806;12.858;2022-12-20T11:41:34;13.93;;;12.40;;
1000;SDS011;489;47.806;12.858;2022-12-20T11:46:14;12.07;;;10.80;;
1000;SDS011;489;47.806;12.858;2022-12-20T11:48:26;12.30;;;11.10;;
1000;SDS011;489;47.806;12.858;2022-12-20T11:50:48;14.80;;;13.40;;
1000;SDS011;489;47.806;12.858;2022-12-20T11:52:57;17.87;;;16.07;;
1000;SDS011;489;47.806;12.858;2022-12-20T11:55:05;15.40;;;13.83;;
1000;SDS011;489;47.806;12.858;2022-12-20T11:57:16;14.03;;;12.17;;
1000;SDS011;489;47.806;12.858;2022-12-20T11:59:34;12.40;;;11.10;;
1000;SDS011;489;47.806;12.858;2022-12-20T12:01:39;14.50;;;11.97;;
1000;SDS011;489;47.806;12.858;2022-12-20T12:03:45;13.47;;;12.07;;
1000;SDS011;489;47.806;12.858;2022-12-20T12:05:55;12.37;;;11.10;;
1000;SDS011;489;47.806;12.858;2022-12-20T12:08:00;17.60;;;14.20;;
1000;SDS011;489;47.806;12.858;2022-12-20T12:10:05;16.77;;;14.47;;
1000;SDS011;489;47.806;12.858;2022-12-20T12:12:17;18.97;;;15.57;;
1000;SDS011;489;47.806;12.858;2022-12-20T12:14:28;18.03;;;13.17;;
1000;SDS011;489;47.806;12.858;2022-12-20T12:16:36;16.37;;;14.37;;
1000;SDS011;489;47.806;12.858;2022-12-20T12:18:39;15.03;;;13.33;;
1000;SDS011;489;47.806;12.858;2022-12-20T12:20:44;16.27;;;14.50;;
1000;SDS011;489;47.806;12.858;2022-12-20T12:22:50;16.50;;;14.20;;
1000;SDS011;489;47.806;12.858;2022-12-20T12:24:56;15.97;;;14.17;;
1000;SDS011;489;47.806;12.858;2022-12-20T12:26:59;15.17;;;13.57;;
1000;SDS011;489;47.806;12.858;2022-12-20T12:29:02;17.70;;;15.37;;
1000;SDS011;489;47.806;12.858;2022-12-20T12:31:08;17.00;;;15.10;;
1000;SDS011;489;47.806;12.858;2022-12-20T12:33:15;16.50;;;14.70;;
1000;SDS011;489;47.806;12.858;2022-12-20T12:35:35;18.40;;;16.40;;
1000;SDS011;489;47.806;12.858;2022-12-20T12:37:53;23.00;;;15.27;;
1000;SDS011;489;47.806;12.858;2022-12-20T12:40:14;21.30;;;16.27;;
1000;SDS011;489;47.806;12.858;2022-12-20T12:42:52;19.23;;;14.57;;
1000;SDS011;489;47.806;12.858;2022-12-20T12:45:13;18.77;;;15.17;;
1000;SDS011;489;47.806;12.858;2022-12-20T12:47:20;22.33;;;17.13;;
1000;SDS011;489;47.806;12.858;2022-12-20T12:49:24;25.70;;;18.93;;
1000;SDS011;489;47.806;12.858;2022-12-20T12:51:28;28.80;;;22.33;;